createdAt,value
2022-10-05T00:00:27.511Z,58.65
2022-10-05T00:01:27.521Z,58.33
2022-10-05T00:02:27.497Z,58.17
2022-10-05T00:03:27.482Z,59.62
2022-10-05T00:04:27.467Z,56.07
2022-10-05T00:05:28.461Z,55.75
2022-10-05T00:06:27.454Z,58.17
2022-10-05T00:07:27.451Z,60.10
2022-10-05T00:08:27.425Z,56.88
2022-10-05T00:09:27.458Z,59.14
2022-10-05T00:10:27.404Z,59.14
2022-10-05T00:11:27.395Z,52.21
2022-10-05T00:12:27.454Z,58.17
2022-10-05T00:13:27.370Z,58.33
2022-10-05T00:14:27.376Z,58.49
2022-10-05T00:15:27.349Z,58.65
2022-10-05T00:16:27.393Z,57.85
2022-10-05T00:17:27.345Z,58.17
2022-10-05T00:18:27.318Z,54.95
2022-10-05T00:19:27.311Z,58.17
2022-10-05T00:20:27.300Z,53.50
2022-10-05T00:21:27.287Z,53.98
2022-10-05T00:22:27.288Z,54.14
2022-10-05T00:23:27.265Z,56.24
2022-10-05T00:24:27.260Z,56.24
2022-10-05T00:25:27.259Z,60.26
2022-10-05T00:26:27.239Z,58.49
2022-10-05T00:27:27.236Z,57.69
2022-10-05T00:28:27.274Z,49.79
2022-10-05T00:29:27.204Z,55.59
2022-10-05T00:30:27.193Z,57.52
2022-10-05T00:31:27.319Z,54.79
2022-10-05T00:32:27.182Z,59.46
2022-10-05T00:33:27.215Z,50.27
2022-10-05T00:34:27.157Z,53.66
2022-10-05T00:35:27.139Z,56.56
2022-10-05T00:36:27.132Z,49.95
2022-10-05T00:37:27.136Z,56.24
2022-10-05T00:38:27.116Z,56.40
2022-10-05T00:39:27.098Z,58.49
2022-10-05T00:40:27.085Z,53.17
2022-10-05T00:41:27.080Z,54.62
2022-10-05T00:42:27.082Z,59.30
2022-10-05T00:43:27.060Z,57.52
2022-10-05T00:44:27.045Z,57.04
2022-10-05T00:45:27.062Z,53.82
2022-10-05T00:46:27.045Z,56.72
2022-10-05T00:47:28.020Z,55.43
2022-10-05T00:48:26.998Z,54.46
2022-10-05T00:49:27.009Z,59.30
2022-10-05T00:50:26.977Z,54.62
2022-10-05T00:51:26.972Z,54.46
2022-10-05T00:52:26.968Z,52.85
2022-10-05T00:53:26.945Z,56.56
2022-10-05T00:54:26.933Z,56.56
2022-10-05T00:55:26.922Z,53.98
2022-10-05T00:56:26.908Z,50.11
2022-10-05T00:57:26.907Z,57.04
2022-10-05T00:58:26.891Z,50.11
2022-10-05T00:59:26.882Z,53.01
2022-10-05T01:00:26.872Z,58.81
2022-10-05T01:01:26.908Z,56.07
2022-10-05T01:02:26.950Z,56.88
2022-10-05T01:03:26.841Z,55.75
2022-10-05T01:04:26.825Z,53.17
2022-10-05T01:05:26.820Z,52.69
2022-10-05T01:06:26.809Z,53.01
2022-10-05T01:07:26.814Z,56.56
2022-10-05T01:08:26.794Z,59.46
2022-10-05T01:09:26.798Z,58.97
2022-10-05T01:10:26.771Z,56.07
2022-10-05T01:11:26.760Z,59.14
2022-10-05T01:12:26.766Z,58.65
2022-10-05T01:13:26.734Z,59.78
2022-10-05T01:14:26.726Z,55.59
2022-10-05T01:15:26.707Z,58.33
2022-10-05T01:16:27.771Z,52.85
2022-10-05T01:17:26.716Z,54.79
2022-10-05T01:18:26.687Z,57.69
2022-10-05T01:19:26.694Z,57.04
2022-10-05T01:20:26.668Z,57.52
2022-10-05T01:21:26.655Z,57.04
2022-10-05T01:22:26.642Z,54.95
2022-10-05T01:23:26.653Z,53.66
2022-10-05T01:24:26.645Z,52.21
2022-10-05T01:25:26.623Z,57.52
2022-10-05T01:26:26.600Z,56.40
2022-10-05T01:27:26.596Z,57.69
2022-10-05T01:28:26.669Z,57.04
2022-10-05T01:29:26.568Z,55.75
2022-10-05T01:30:26.569Z,54.62
2022-10-05T01:31:26.577Z,55.59
2022-10-05T01:32:26.548Z,56.72
2022-10-05T01:33:26.547Z,59.62
2022-10-05T01:34:26.522Z,59.14
2022-10-05T01:35:26.520Z,60.10
2022-10-05T01:36:26.539Z,56.72
2022-10-05T01:37:26.502Z,54.62
2022-10-05T01:38:26.482Z,54.62
2022-10-05T01:39:26.476Z,53.01
2022-10-05T01:40:26.461Z,56.72
2022-10-05T01:41:26.473Z,55.43
2022-10-05T01:42:26.459Z,54.14
2022-10-05T01:43:26.430Z,54.62
2022-10-05T01:44:26.441Z,55.91
2022-10-05T01:45:26.583Z,54.30
2022-10-05T01:46:26.430Z,56.88
2022-10-05T01:47:26.410Z,57.20
2022-10-05T01:48:26.409Z,51.24
2022-10-05T01:49:26.393Z,59.62
2022-10-05T01:50:26.356Z,52.37
2022-10-05T01:51:26.448Z,56.24
2022-10-05T01:52:26.346Z,54.62
2022-10-05T01:53:26.324Z,56.24
2022-10-05T01:54:26.348Z,54.62
2022-10-05T01:55:26.338Z,54.30
2022-10-05T01:56:26.302Z,50.27
2022-10-05T01:57:26.337Z,58.81
2022-10-05T01:58:26.277Z,58.01
2022-10-05T01:59:26.259Z,54.30
2022-10-05T02:00:26.256Z,53.66
2022-10-05T02:01:26.325Z,52.69
2022-10-05T02:02:26.297Z,59.46
2022-10-05T02:03:26.213Z,52.69
2022-10-05T02:04:59.858Z,55.75
2022-10-05T02:05:28.198Z,58.33
2022-10-05T02:06:26.192Z,60.42
2022-10-05T02:07:26.200Z,58.33
2022-10-05T02:08:26.174Z,55.75
2022-10-05T02:09:26.165Z,55.27
2022-10-05T02:10:26.151Z,56.40
2022-10-05T02:11:26.145Z,51.08
2022-10-05T02:12:26.148Z,54.30
2022-10-05T02:13:26.150Z,56.40
2022-10-05T02:14:26.113Z,55.43
2022-10-05T02:15:26.102Z,53.66
2022-10-05T02:16:26.139Z,57.85
2022-10-05T02:17:26.095Z,58.33
2022-10-05T02:18:26.081Z,57.85
2022-10-05T02:19:26.060Z,58.81
2022-10-05T02:20:26.065Z,57.52
2022-10-05T02:21:26.042Z,58.65
2022-10-05T02:22:26.029Z,57.85
2022-10-05T02:23:26.086Z,58.49
2022-10-05T02:24:26.012Z,55.43
2022-10-05T02:25:26.000Z,59.14
2022-10-05T02:26:25.990Z,59.94
2022-10-05T02:27:25.974Z,50.60
2022-10-05T02:28:26.015Z,52.69
2022-10-05T02:29:25.959Z,51.24
2022-10-05T02:30:25.960Z,53.66
2022-10-05T02:31:26.014Z,57.69
2022-10-05T02:32:25.933Z,57.52
2022-10-05T02:33:25.929Z,57.85
2022-10-05T02:34:25.904Z,54.79
2022-10-05T02:35:25.901Z,57.20
2022-10-05T02:36:25.889Z,57.52
2022-10-05T02:37:25.907Z,55.43
2022-10-05T02:38:26.063Z,52.37
2022-10-05T02:39:25.853Z,52.69
2022-10-05T02:40:25.841Z,52.05
2022-10-05T02:41:25.834Z,53.66
2022-10-05T02:42:25.826Z,59.30
2022-10-05T02:43:25.831Z,56.72
2022-10-05T02:44:25.806Z,54.46
2022-10-05T02:45:25.818Z,57.36
2022-10-05T02:46:26.846Z,54.79
2022-10-05T02:47:25.779Z,56.07
2022-10-05T02:48:25.787Z,57.85
2022-10-05T02:49:25.757Z,53.98
2022-10-05T02:50:25.741Z,58.01
2022-10-05T02:51:25.739Z,55.75
2022-10-05T02:52:25.726Z,52.85
2022-10-05T02:53:25.730Z,52.21
2022-10-05T02:54:25.708Z,57.36
2022-10-05T02:55:25.691Z,58.81
2022-10-05T02:56:25.681Z,58.33
2022-10-05T02:57:25.672Z,57.69
2022-10-05T02:58:25.685Z,50.76
2022-10-05T02:59:25.667Z,55.11
2022-10-05T03:00:25.641Z,53.17
2022-10-05T03:01:25.686Z,53.98
2022-10-05T03:02:25.807Z,56.24
2022-10-05T03:03:25.617Z,57.69
2022-10-05T03:04:25.596Z,58.33
2022-10-05T03:05:25.586Z,55.75
2022-10-05T03:06:25.579Z,57.85
2022-10-05T03:07:25.566Z,59.14
2022-10-05T03:08:25.567Z,54.95
2022-10-05T03:09:25.543Z,56.56
2022-10-05T03:10:25.536Z,57.85
2022-10-05T03:11:25.525Z,56.40
2022-10-05T03:12:25.549Z,54.30
2022-10-05T03:13:25.514Z,51.24
2022-10-05T03:14:25.490Z,56.88
2022-10-05T03:15:25.491Z,55.91
2022-10-05T03:16:25.557Z,55.11
2022-10-05T03:17:25.478Z,57.36
2022-10-05T03:18:29.936Z,51.56
2022-10-05T03:19:27.447Z,56.72
2022-10-05T03:20:25.439Z,55.43
2022-10-05T03:21:25.432Z,53.50
2022-10-05T03:22:25.422Z,55.43
2022-10-05T03:23:25.418Z,59.78
2022-10-05T03:24:25.398Z,58.49
2022-10-05T03:25:25.388Z,52.85
2022-10-05T03:26:25.377Z,53.98
2022-10-05T03:27:25.365Z,56.72
2022-10-05T03:28:25.470Z,58.97
2022-10-05T03:29:25.355Z,59.62
2022-10-05T03:30:25.334Z,57.36
2022-10-05T03:31:25.368Z,54.30
2022-10-05T03:32:25.312Z,59.14
2022-10-05T03:33:25.318Z,58.81
2022-10-05T03:34:25.288Z,56.40
2022-10-05T03:35:25.325Z,56.40
2022-10-05T03:36:25.269Z,59.78
2022-10-05T03:37:25.258Z,59.62
2022-10-05T03:38:25.268Z,58.49
2022-10-05T03:39:25.242Z,57.36
2022-10-05T03:40:25.229Z,57.52
2022-10-05T03:41:25.222Z,56.24
2022-10-05T03:42:25.212Z,55.11
2022-10-05T03:43:25.215Z,56.40
2022-10-05T03:44:25.194Z,55.11
2022-10-05T03:45:25.181Z,54.95
2022-10-05T03:46:25.182Z,58.01
2022-10-05T03:47:25.162Z,58.81
2022-10-05T03:48:25.166Z,56.24
2022-10-05T03:49:25.143Z,59.14
2022-10-05T03:50:25.129Z,52.69
2022-10-05T03:51:25.119Z,52.05
2022-10-05T03:52:25.116Z,59.62
2022-10-05T03:53:25.116Z,57.85
2022-10-05T03:54:25.089Z,56.72
2022-10-05T03:55:25.088Z,56.56
2022-10-05T03:56:25.074Z,54.62
2022-10-05T03:57:25.060Z,54.79
2022-10-05T03:58:25.171Z,56.72
2022-10-05T03:59:28.813Z,57.85
2022-10-05T04:00:26.023Z,58.33
2022-10-05T04:01:25.069Z,55.59
2022-10-05T04:02:25.046Z,53.66
2022-10-05T04:03:25.005Z,58.81
2022-10-05T04:04:24.990Z,59.30
2022-10-05T04:05:24.979Z,58.01
2022-10-05T04:06:25.016Z,57.85
2022-10-05T04:07:24.961Z,56.24
2022-10-05T04:08:24.960Z,54.46
2022-10-05T04:09:24.934Z,59.62
2022-10-05T04:10:24.929Z,58.33
2022-10-05T04:11:24.914Z,58.33
2022-10-05T04:12:24.908Z,57.69
2022-10-05T04:13:24.917Z,57.36
2022-10-05T04:14:24.898Z,59.46
2022-10-05T04:15:24.881Z,58.81
2022-10-05T04:16:24.908Z,58.33
2022-10-05T04:17:24.862Z,58.01
2022-10-05T04:18:24.865Z,54.79
2022-10-05T04:19:24.842Z,56.56
2022-10-05T04:20:24.836Z,56.07
2022-10-05T04:21:24.842Z,59.14
2022-10-05T04:22:24.821Z,58.65
2022-10-05T04:23:24.813Z,58.49
2022-10-05T04:24:24.793Z,56.72
2022-10-05T04:25:24.781Z,53.98
2022-10-05T04:26:24.774Z,58.01
2022-10-05T04:27:24.765Z,57.52
2022-10-05T04:28:28.295Z,57.69
2022-10-05T04:29:26.744Z,58.33
2022-10-05T04:30:24.732Z,58.17
2022-10-05T04:31:24.770Z,57.52
2022-10-05T04:32:24.713Z,57.69
2022-10-05T04:33:24.712Z,53.66
2022-10-05T04:34:24.695Z,55.91
2022-10-05T04:35:24.685Z,59.30
2022-10-05T04:36:24.669Z,54.95
2022-10-05T04:37:24.675Z,53.82
2022-10-05T04:38:24.664Z,57.04
2022-10-05T04:39:24.638Z,54.79
2022-10-05T04:40:24.636Z,56.72
2022-10-05T04:41:24.646Z,54.14
2022-10-05T04:42:24.610Z,58.97
2022-10-05T04:43:24.614Z,58.97
2022-10-05T04:44:24.587Z,57.36
2022-10-05T04:45:24.588Z,57.36
2022-10-05T04:46:24.616Z,57.85
2022-10-05T04:47:24.564Z,58.65
2022-10-05T04:48:24.566Z,57.85
2022-10-05T04:49:24.565Z,55.91
2022-10-05T04:50:24.535Z,54.79
2022-10-05T04:51:24.525Z,54.62
2022-10-05T04:52:24.521Z,57.04
2022-10-05T04:53:24.557Z,55.27
2022-10-05T04:54:24.501Z,56.88
2022-10-05T04:55:24.490Z,53.17
2022-10-05T04:56:24.473Z,57.36
2022-10-05T04:57:24.464Z,54.30
2022-10-05T04:58:24.473Z,54.30
2022-10-05T04:59:24.478Z,56.07
2022-10-05T05:00:24.442Z,57.85
2022-10-05T05:01:24.504Z,56.24
2022-10-05T05:02:24.427Z,52.53
2022-10-05T05:03:24.489Z,55.91
2022-10-05T05:04:24.402Z,58.01
2022-10-05T05:05:24.391Z,57.20
2022-10-05T05:06:24.382Z,52.37
2022-10-05T05:07:24.373Z,55.59
2022-10-05T05:08:24.376Z,52.21
2022-10-05T05:09:24.352Z,57.36
2022-10-05T05:10:24.343Z,57.04
2022-10-05T05:11:24.783Z,55.27
2022-10-05T05:12:25.319Z,55.27
2022-10-05T05:13:24.338Z,56.56
2022-10-05T05:14:24.304Z,56.40
2022-10-05T05:15:24.293Z,57.85
2022-10-05T05:16:24.346Z,57.85
2022-10-05T05:17:25.274Z,56.56
2022-10-05T05:18:24.275Z,57.36
2022-10-05T05:19:24.252Z,56.56
2022-10-05T05:20:24.280Z,56.72
2022-10-05T05:21:24.229Z,55.11
2022-10-05T05:22:24.215Z,55.27
2022-10-05T05:23:25.223Z,52.69
2022-10-05T05:24:24.210Z,56.72
2022-10-05T05:25:24.184Z,55.59
2022-10-05T05:26:25.184Z,54.14
2022-10-05T05:27:24.173Z,57.85
2022-10-05T05:28:24.254Z,52.37
2022-10-05T05:29:24.195Z,54.30
2022-10-05T05:30:24.142Z,54.79
2022-10-05T05:31:24.285Z,52.05
2022-10-05T05:32:24.138Z,55.59
2022-10-05T05:33:24.115Z,55.43
2022-10-05T05:34:24.100Z,57.20
2022-10-05T05:35:24.089Z,52.69
2022-10-05T05:36:24.084Z,53.98
2022-10-05T05:37:24.091Z,51.08
2022-10-05T05:38:24.064Z,54.30
2022-10-05T05:39:24.054Z,55.75
2022-10-05T05:40:24.042Z,53.66
2022-10-05T05:41:24.034Z,51.24
2022-10-05T05:42:24.019Z,55.43
2022-10-05T05:43:24.015Z,54.46
2022-10-05T05:44:24.000Z,56.24
2022-10-05T05:45:23.991Z,54.30
2022-10-05T05:46:38.776Z,50.60
2022-10-05T05:47:26.002Z,56.07
2022-10-05T05:48:23.971Z,53.17
2022-10-05T05:49:23.953Z,52.85
2022-10-05T05:50:23.942Z,55.27
2022-10-05T05:51:23.964Z,51.56
2022-10-05T05:52:23.925Z,55.27
2022-10-05T05:53:23.912Z,54.79
2022-10-05T05:54:24.902Z,54.95
2022-10-05T05:55:29.021Z,56.24
2022-10-05T05:56:25.888Z,51.88
2022-10-05T05:57:23.873Z,54.79
2022-10-05T05:58:23.874Z,55.59
2022-10-05T05:59:23.853Z,53.66
2022-10-05T06:00:23.847Z,55.75
2022-10-05T06:01:32.788Z,49.15
2022-10-05T06:02:25.888Z,55.75
2022-10-05T06:03:23.973Z,56.88
2022-10-05T06:04:23.800Z,53.17
2022-10-05T06:05:23.794Z,52.37
2022-10-05T06:06:23.784Z,50.60
2022-10-05T06:07:28.046Z,51.56
2022-10-05T06:08:25.780Z,53.50
2022-10-05T06:09:23.759Z,52.85
2022-10-05T06:10:23.744Z,52.21
2022-10-05T06:11:23.771Z,50.43
2022-10-05T06:12:23.722Z,52.21
2022-10-05T06:13:23.727Z,52.37
2022-10-05T06:14:23.701Z,54.14
2022-10-05T06:15:23.695Z,52.21
2022-10-05T06:16:23.708Z,50.60
2022-10-05T06:17:23.675Z,55.27
2022-10-05T06:18:23.674Z,51.56
2022-10-05T06:19:23.652Z,53.33
2022-10-05T06:20:23.637Z,53.33
2022-10-05T06:21:23.633Z,53.98
2022-10-05T06:22:23.631Z,51.56
2022-10-05T06:23:23.622Z,52.21
2022-10-05T06:24:23.628Z,53.98
2022-10-05T06:25:23.645Z,55.75
2022-10-05T06:26:23.589Z,54.30
2022-10-05T06:27:23.566Z,52.21
2022-10-05T06:28:23.665Z,53.66
2022-10-05T06:29:23.660Z,55.27
2022-10-05T06:30:23.537Z,52.85
2022-10-05T06:31:23.566Z,52.21
2022-10-05T06:32:23.527Z,54.30
2022-10-05T06:33:23.526Z,51.56
2022-10-05T06:34:23.501Z,54.95
2022-10-05T06:35:23.530Z,50.92
2022-10-05T06:36:23.479Z,50.60
2022-10-05T06:37:23.513Z,51.56
2022-10-05T06:38:23.487Z,52.05
2022-10-05T06:39:23.453Z,51.56
2022-10-05T06:40:23.442Z,52.69
2022-10-05T06:41:23.434Z,52.21
2022-10-05T06:42:23.420Z,49.95
2022-10-05T06:43:24.705Z,53.01
2022-10-05T06:44:23.403Z,52.37
2022-10-05T06:45:23.388Z,50.92
2022-10-05T06:46:23.416Z,51.72
2022-10-05T06:47:23.364Z,49.79
2022-10-05T06:48:23.374Z,50.76
2022-10-05T06:49:23.347Z,50.11
2022-10-05T06:50:23.339Z,50.27
2022-10-05T06:51:23.362Z,50.11
2022-10-05T06:52:23.320Z,53.33
2022-10-05T06:53:23.314Z,52.37
2022-10-05T06:54:24.294Z,49.63
2022-10-05T06:55:23.279Z,51.72
2022-10-05T06:56:23.279Z,50.76
2022-10-05T06:57:23.276Z,51.88
2022-10-05T06:58:23.265Z,51.88
2022-10-05T06:59:23.246Z,47.70
2022-10-05T07:00:23.231Z,51.56
2022-10-05T07:01:23.263Z,51.72
2022-10-05T07:02:23.262Z,51.40
2022-10-05T07:03:23.222Z,52.21
2022-10-05T07:04:23.193Z,49.79
2022-10-05T07:05:23.172Z,49.47
2022-10-05T07:06:24.169Z,50.27
2022-10-05T07:07:23.166Z,53.98
2022-10-05T07:08:23.161Z,49.47
2022-10-05T07:09:23.143Z,50.43
2022-10-05T07:10:23.128Z,52.37
2022-10-05T07:11:23.230Z,53.17
2022-10-05T07:12:23.107Z,51.88
2022-10-05T07:13:23.117Z,49.63
2022-10-05T07:14:23.128Z,54.30
2022-10-05T07:15:23.084Z,53.33
2022-10-05T07:16:23.088Z,50.43
2022-10-05T07:17:24.067Z,53.66
2022-10-05T07:18:23.179Z,49.15
2022-10-05T07:19:23.039Z,51.56
2022-10-05T07:20:23.033Z,49.95
2022-10-05T07:21:23.011Z,52.37
2022-10-05T07:22:23.004Z,52.85
2022-10-05T07:23:23.001Z,54.62
2022-10-05T07:24:22.984Z,50.60
2022-10-05T07:25:22.976Z,49.47
2022-10-05T07:26:22.966Z,50.76
2022-10-05T07:27:22.966Z,50.11
2022-10-05T07:28:23.085Z,49.79
2022-10-05T07:29:22.928Z,49.95
2022-10-05T07:30:22.913Z,51.08
2022-10-05T07:31:22.986Z,50.92
2022-10-05T07:32:22.897Z,51.24
2022-10-05T07:33:22.897Z,48.98
2022-10-05T07:34:22.870Z,46.57
2022-10-05T07:35:22.871Z,50.27
2022-10-05T07:36:22.855Z,49.79
2022-10-05T07:37:22.844Z,47.37
2022-10-05T07:38:22.847Z,51.88
2022-10-05T07:39:23.480Z,50.11
2022-10-05T07:40:23.809Z,50.92
2022-10-05T07:41:22.798Z,50.43
2022-10-05T07:42:22.793Z,47.70
2022-10-05T07:43:22.792Z,46.73
2022-10-05T07:44:22.772Z,50.27
2022-10-05T07:45:22.766Z,52.85
2022-10-05T07:46:22.861Z,50.43
2022-10-05T07:47:22.740Z,50.43
2022-10-05T07:48:22.746Z,50.76
2022-10-05T07:49:22.759Z,50.11
2022-10-05T07:50:22.781Z,53.66
2022-10-05T07:51:22.703Z,50.92
2022-10-05T07:52:22.700Z,48.66
2022-10-05T07:53:22.691Z,47.86
2022-10-05T07:54:22.695Z,48.98
2022-10-05T07:55:22.672Z,47.21
2022-10-05T07:56:22.652Z,51.40
2022-10-05T07:57:22.640Z,52.69
2022-10-05T07:58:22.633Z,49.47
2022-10-05T07:59:23.627Z,51.08
2022-10-05T08:00:22.816Z,51.56
2022-10-05T08:01:22.676Z,50.60
2022-10-05T08:02:22.723Z,50.60
2022-10-05T08:03:22.663Z,48.34
2022-10-05T08:04:22.570Z,46.41
2022-10-05T08:05:22.554Z,49.47
2022-10-05T08:06:22.543Z,48.98
2022-10-05T08:08:22.545Z,51.56
2022-10-05T08:09:22.531Z,51.56
2022-10-05T08:10:22.508Z,51.72
2022-10-05T08:11:22.492Z,50.43
2022-10-05T08:12:22.504Z,50.92
2022-10-05T08:13:22.486Z,48.98
2022-10-05T08:14:22.462Z,49.79
2022-10-05T08:15:22.460Z,51.72
2022-10-05T08:16:22.541Z,51.08
2022-10-05T08:17:25.578Z,49.15
2022-10-05T08:18:23.435Z,49.31
2022-10-05T08:19:22.409Z,53.17
2022-10-05T08:20:22.413Z,53.82
2022-10-05T08:21:22.388Z,51.56
2022-10-05T08:22:22.381Z,49.15
2022-10-05T08:23:22.379Z,52.53
2022-10-05T08:24:22.354Z,50.60
2022-10-05T08:25:22.344Z,50.11
2022-10-05T08:26:22.337Z,48.82
2022-10-05T08:27:22.327Z,49.15
2022-10-05T08:28:22.368Z,46.08
2022-10-05T08:29:22.308Z,48.50
2022-10-05T08:30:22.299Z,49.15
2022-10-05T08:31:22.413Z,49.79
2022-10-05T08:32:22.291Z,50.76
2022-10-05T08:33:22.277Z,50.76
2022-10-05T08:34:22.275Z,49.63
2022-10-05T08:35:22.245Z,51.08
2022-10-05T08:36:22.246Z,53.66
2022-10-05T08:37:22.261Z,53.66
2022-10-05T08:38:22.221Z,51.24
2022-10-05T08:39:22.205Z,48.02
2022-10-05T08:40:22.191Z,50.43
2022-10-05T08:41:22.178Z,49.63
2022-10-05T08:42:22.167Z,52.21
2022-10-05T08:43:22.166Z,52.21
2022-10-05T08:44:22.146Z,51.08
2022-10-05T08:45:22.135Z,49.79
2022-10-05T08:46:22.173Z,46.41
2022-10-05T08:47:22.110Z,50.11
2022-10-05T08:48:22.114Z,49.79
2022-10-05T08:49:22.088Z,50.60
2022-10-05T08:50:22.082Z,52.69
2022-10-05T08:51:22.068Z,49.47
2022-10-05T08:52:22.058Z,47.21
2022-10-05T08:53:22.074Z,50.76
2022-10-05T08:54:22.041Z,47.37
2022-10-05T08:55:22.029Z,50.60
2022-10-05T08:56:26.351Z,53.98
2022-10-05T08:57:24.028Z,52.53
2022-10-05T08:58:22.014Z,48.82
2022-10-05T08:59:21.992Z,53.98
2022-10-05T09:00:21.984Z,50.92
2022-10-05T09:01:22.074Z,48.66
2022-10-05T09:02:21.988Z,49.79
2022-10-05T09:03:22.960Z,49.79
2022-10-05T09:04:21.946Z,51.72
2022-10-05T09:05:21.929Z,50.92
2022-10-05T09:06:21.922Z,48.34
2022-10-05T09:07:21.927Z,49.47
2022-10-05T09:08:21.915Z,49.79
2022-10-05T09:09:21.883Z,50.11
2022-10-05T09:10:21.871Z,50.92
2022-10-05T09:11:21.900Z,52.21
2022-10-05T09:12:21.854Z,49.79
2022-10-05T09:13:21.918Z,51.88
2022-10-05T09:14:21.836Z,52.69
2022-10-05T09:15:27.161Z,51.24
2022-10-05T09:16:23.899Z,51.24
2022-10-05T09:17:21.808Z,50.60
2022-10-05T09:18:21.811Z,54.14
2022-10-05T09:19:21.783Z,49.15
2022-10-05T09:20:21.777Z,52.21
2022-10-05T09:21:22.769Z,50.11
2022-10-05T09:22:21.756Z,51.08
2022-10-05T09:23:21.753Z,50.43
2022-10-05T09:24:21.755Z,51.56
2022-10-05T09:25:21.724Z,51.08
2022-10-05T09:26:21.716Z,51.40
2022-10-05T09:27:22.706Z,52.69
2022-10-05T09:28:21.771Z,55.43
2022-10-05T09:29:21.678Z,51.56
2022-10-05T09:30:21.671Z,50.43
2022-10-05T09:31:21.709Z,50.92
2022-10-05T09:32:21.651Z,53.33
2022-10-05T09:33:21.648Z,54.62
2022-10-05T09:34:21.644Z,52.37
2022-10-05T09:35:21.728Z,54.95
2022-10-05T09:36:21.602Z,53.82
2022-10-05T09:37:21.596Z,53.50
2022-10-05T09:38:21.603Z,52.05
2022-10-05T09:39:21.577Z,54.62
2022-10-05T09:40:21.565Z,55.27
2022-10-05T09:41:21.565Z,52.05
2022-10-05T09:42:21.553Z,51.56
2022-10-05T09:43:21.551Z,53.50
2022-10-05T09:44:21.522Z,54.14
2022-10-05T09:45:21.747Z,52.53
2022-10-05T09:46:21.571Z,54.62
2022-10-05T09:47:21.490Z,52.69
2022-10-05T09:48:21.492Z,52.69
2022-10-05T09:49:21.471Z,51.72
2022-10-05T09:50:21.477Z,55.43
2022-10-05T09:51:21.470Z,55.75
2022-10-05T09:52:21.439Z,55.91
2022-10-05T09:53:21.450Z,51.88
2022-10-05T09:54:21.424Z,52.21
2022-10-05T09:55:21.414Z,50.76
2022-10-05T09:56:21.412Z,54.46
2022-10-05T09:57:21.397Z,53.01
2022-10-05T09:58:21.392Z,56.07
2022-10-05T09:59:21.372Z,53.66
2022-10-05T10:00:21.364Z,51.88
2022-10-05T10:01:33.157Z,56.07
2022-10-05T10:02:23.424Z,54.46
2022-10-05T10:03:21.446Z,55.43
2022-10-05T10:04:21.327Z,52.21
2022-10-05T10:05:21.312Z,52.37
2022-10-05T10:06:21.305Z,53.50
2022-10-05T10:07:21.303Z,52.85
2022-10-05T10:08:21.299Z,50.11
2022-10-05T10:09:21.273Z,56.88
2022-10-05T10:10:21.263Z,54.95
2022-10-05T10:11:21.256Z,54.79
2022-10-05T10:12:21.246Z,53.17
2022-10-05T10:13:21.243Z,56.56
2022-10-05T10:14:21.239Z,56.56
2022-10-05T10:15:22.209Z,53.98
2022-10-05T10:16:21.291Z,54.95
2022-10-05T10:17:21.190Z,56.07
2022-10-05T10:18:21.190Z,54.79
2022-10-05T10:19:21.172Z,52.69
2022-10-05T10:20:21.164Z,54.79
2022-10-05T10:21:21.148Z,55.27
2022-10-05T10:22:21.141Z,53.01
2022-10-05T10:23:21.145Z,54.79
2022-10-05T10:24:21.120Z,54.30
2022-10-05T10:25:21.107Z,54.30
2022-10-05T10:26:21.096Z,55.91
2022-10-05T10:27:21.090Z,54.46
2022-10-05T10:28:21.129Z,57.85
2022-10-05T10:29:21.129Z,56.07
2022-10-05T10:30:21.882Z,53.17
2022-10-05T10:31:21.109Z,57.69
2022-10-05T10:32:21.052Z,57.20
2022-10-05T10:33:21.039Z,55.27
2022-10-05T10:34:21.029Z,54.46
2022-10-05T10:35:21.046Z,53.33
2022-10-05T10:36:21.000Z,54.62
2022-10-05T10:37:21.003Z,54.79
2022-10-05T10:38:20.998Z,55.27
2022-10-05T10:39:21.034Z,54.30
2022-10-05T10:40:20.962Z,53.50
2022-10-05T10:41:20.953Z,54.79
2022-10-05T10:42:26.000Z,54.30
2022-10-05T10:43:22.937Z,53.82
2022-10-05T10:44:20.931Z,53.82
2022-10-05T10:45:20.905Z,55.59
2022-10-05T10:46:20.958Z,56.40
2022-10-05T10:47:20.886Z,54.14
2022-10-05T10:48:20.885Z,54.95
2022-10-05T10:49:20.865Z,54.30
2022-10-05T10:50:20.867Z,57.85
2022-10-05T10:51:20.843Z,55.59
2022-10-05T10:52:20.839Z,52.69
2022-10-05T10:53:20.832Z,56.56
2022-10-05T10:54:20.819Z,57.20
2022-10-05T10:55:20.877Z,57.85
2022-10-05T10:56:20.816Z,57.20
2022-10-05T10:57:20.793Z,53.82
2022-10-05T10:58:20.843Z,56.40
2022-10-05T10:59:20.764Z,56.24
2022-10-05T11:00:20.754Z,57.52
2022-10-05T11:01:20.812Z,57.52
2022-10-05T11:02:20.808Z,58.97
2022-10-05T11:03:20.734Z,58.01
2022-10-05T11:04:20.716Z,58.17
2022-10-05T11:05:20.706Z,56.24
2022-10-05T11:06:20.717Z,54.62
2022-10-05T11:07:20.707Z,57.85
2022-10-05T11:08:20.691Z,58.01
2022-10-05T11:09:20.671Z,57.36
2022-10-05T11:10:21.668Z,55.11
2022-10-05T11:11:20.665Z,59.30
2022-10-05T11:12:20.642Z,57.36
2022-10-05T11:13:20.647Z,59.14
2022-10-05T11:14:20.621Z,58.17
2022-10-05T11:15:20.613Z,57.04
2022-10-05T11:16:20.596Z,57.69
2022-10-05T11:17:20.605Z,58.49
2022-10-05T11:18:21.781Z,58.49
2022-10-05T11:19:20.569Z,58.01
2022-10-05T11:20:20.558Z,56.88
2022-10-05T11:21:20.548Z,58.49
2022-10-05T11:22:20.588Z,58.33
2022-10-05T11:23:20.577Z,57.36
2022-10-05T11:24:20.517Z,58.01
2022-10-05T11:25:20.512Z,59.62
2022-10-05T11:26:20.511Z,58.65
2022-10-05T11:28:20.565Z,58.81
2022-10-05T11:29:20.471Z,59.46
2022-10-05T11:30:20.459Z,58.17
2022-10-05T11:31:20.551Z,59.62
2022-10-05T11:32:20.435Z,58.49
2022-10-05T11:33:20.443Z,60.26
2022-10-05T11:34:20.418Z,57.69
2022-10-05T11:35:20.407Z,55.43
2022-10-05T11:36:20.399Z,57.36
2022-10-05T11:37:20.393Z,59.46
2022-10-05T11:38:20.379Z,59.62
2022-10-05T11:39:20.382Z,60.42
2022-10-05T11:40:20.531Z,58.97
2022-10-05T11:41:20.381Z,58.81
2022-10-05T11:42:20.336Z,59.78
2022-10-05T11:43:20.367Z,59.30
2022-10-05T11:44:20.330Z,58.49
2022-10-05T11:45:20.309Z,60.26
2022-10-05T11:46:20.347Z,58.65
2022-10-05T11:47:20.289Z,55.91
2022-10-05T11:48:20.281Z,60.59
2022-10-05T11:49:20.283Z,57.69
2022-10-05T11:50:20.261Z,58.33
2022-10-05T11:51:22.083Z,58.49
2022-10-05T11:52:20.246Z,57.69
2022-10-05T11:53:20.244Z,57.52
2022-10-05T11:54:20.232Z,58.97
2022-10-05T11:55:20.223Z,59.30
2022-10-05T11:56:20.255Z,58.97
2022-10-05T11:57:20.186Z,58.17
2022-10-05T11:58:20.178Z,59.94
2022-10-05T11:59:20.179Z,59.46
2022-10-05T12:00:20.174Z,58.97
2022-10-05T12:01:20.149Z,58.97
2022-10-05T12:02:20.136Z,58.97
2022-10-05T12:03:20.267Z,58.97
2022-10-05T12:04:20.209Z,58.65
2022-10-05T12:05:20.212Z,57.69
2022-10-05T12:06:20.102Z,59.30
2022-10-05T12:07:20.107Z,58.49
2022-10-05T12:08:20.079Z,59.46
2022-10-05T12:09:20.083Z,59.62
2022-10-05T12:10:20.061Z,59.30
2022-10-05T12:11:20.143Z,59.46
2022-10-05T12:12:20.042Z,60.42
2022-10-05T12:13:20.052Z,59.30
2022-10-05T12:14:20.034Z,60.10
2022-10-05T12:15:20.033Z,59.94
2022-10-05T12:16:20.118Z,58.81
2022-10-05T12:17:19.996Z,59.46
2022-10-05T12:18:19.981Z,60.75
2022-10-05T12:19:19.981Z,58.01
2022-10-05T12:20:19.958Z,59.46
2022-10-05T12:21:19.950Z,57.04
2022-10-05T12:22:19.936Z,58.49
2022-10-05T12:23:19.930Z,61.55
2022-10-05T12:24:24.578Z,56.88
2022-10-05T12:25:21.903Z,58.81
2022-10-05T12:26:20.901Z,58.97
2022-10-05T12:27:19.890Z,59.78
2022-10-05T12:28:19.905Z,59.78
2022-10-05T12:29:19.887Z,59.30
2022-10-05T12:30:19.857Z,60.59
2022-10-05T12:31:19.891Z,60.10
2022-10-05T12:32:19.866Z,57.69
2022-10-05T12:33:19.831Z,60.10
2022-10-05T12:34:19.833Z,59.78
2022-10-05T12:35:36.511Z,59.46
2022-10-05T12:36:21.805Z,60.26
2022-10-05T12:37:19.798Z,57.85
2022-10-05T12:38:19.784Z,57.52
2022-10-05T12:39:19.786Z,60.10
2022-10-05T12:40:19.768Z,59.14
2022-10-05T12:41:19.753Z,59.46
2022-10-05T12:42:19.739Z,59.30
2022-10-05T12:43:19.740Z,57.52
2022-10-05T12:44:19.785Z,59.46
2022-10-05T12:45:19.718Z,59.94
2022-10-05T12:46:19.706Z,60.75
2022-10-05T12:47:19.697Z,58.97
2022-10-05T12:48:19.687Z,58.97
2022-10-05T12:49:19.680Z,58.81
2022-10-05T12:50:19.664Z,58.81
2022-10-05T12:51:19.660Z,60.10
2022-10-05T12:52:19.643Z,58.49
2022-10-05T12:53:19.630Z,58.01
2022-10-05T12:54:19.642Z,58.97